EJA409 KVJI-MYNN
Flight info
| Callsign | EJA409 |
|---|---|
| Flight time | N/A |
| Altitude | 31000 |
| Route | HMV DCT HRTWL Q77 ETORE DCT ONEWY DCT EBAYY DCT FOMGU Y624 ZFP BR65V PEACH |
| Aircraft | C68A/M-SDFGHRWY/SB1 |
Departure
| Time | 2026-05-04 18:07 |
|---|---|
| Airport | Virginia Highlands Airport (KVJI) |
Arrival
| Time | N/A |
|---|---|
| Airport | Lynden Pindling International Airport (MYNN) |
| Time | Latitude | Longitude | Altitude | Speed | Heading |
|---|---|---|---|---|---|
| 2026-05-04 18:02 | 36.68543 | -82.03378 | 2085 ft | 0 kts | 237° |
| 2026-05-04 18:03 | 36.68541 | -82.03382 | 2076 ft | 3 kts | 237° |
| 2026-05-04 18:03 | 36.68522 | -82.03436 | 2076 ft | 9 kts | 280° |
| 2026-05-04 18:04 | 36.68556 | -82.03464 | 2076 ft | 4 kts | 15° |
| 2026-05-04 18:04 | 36.68580 | -82.03426 | 2075 ft | 8 kts | 56° |
| 2026-05-04 18:04 | 36.68683 | -82.03236 | 2074 ft | 16 kts | 55° |
| 2026-05-04 18:05 | 36.68750 | -82.03115 | 2070 ft | 17 kts | 56° |
| 2026-05-04 18:05 | 36.68812 | -82.03001 | 2071 ft | 15 kts | 56° |
| 2026-05-04 18:05 | 36.68877 | -82.02882 | 2072 ft | 18 kts | 56° |
| 2026-05-04 18:05 | 36.68945 | -82.02756 | 2070 ft | 14 kts | 45° |
| 2026-05-04 18:06 | 36.69041 | -82.02719 | 2075 ft | 3 kts | 296° |
| 2026-05-04 18:06 | 36.69035 | -82.02736 | 2075 ft | 0 kts | 234° |
| 2026-05-04 18:07 | 36.69015 | -82.02773 | 2075 ft | 31 kts | 236° |
| 2026-05-04 18:07 | 36.68699 | -82.03353 | 2077 ft | 128 kts | 236° |
| 2026-05-04 18:07 | 36.68104 | -82.04485 | 2688 ft | 180 kts | 239° |
| 2026-05-04 18:07 | 36.67371 | -82.05972 | 3749 ft | 218 kts | 238° |
| 2026-05-04 18:08 | 36.66602 | -82.07656 | 5111 ft | 222 kts | 242° |
| 2026-05-04 18:08 | 36.65820 | -82.09371 | 6482 ft | 234 kts | 241° |
| 2026-05-04 18:08 | 36.64718 | -82.10937 | 8046 ft | 247 kts | 217° |
| 2026-05-04 18:08 | 36.63076 | -82.11622 | 9680 ft | 260 kts | 193° |
| 2026-05-04 18:09 | 36.59435 | -82.11881 | 12639 ft | 266 kts | 192° |
| 2026-05-04 18:09 | 36.55600 | -82.12181 | 15013 ft | 283 kts | 189° |
| 2026-05-04 18:10 | 36.53618 | -82.12290 | 16168 ft | 288 kts | 189° |
| 2026-05-04 18:10 | 36.51592 | -82.12434 | 17293 ft | 293 kts | 190° |
| 2026-05-04 18:10 | 36.49538 | -82.12580 | 18411 ft | 299 kts | 189° |
| 2026-05-04 18:10 | 36.47443 | -82.12714 | 19378 ft | 303 kts | 189° |
| 2026-05-04 18:11 | 36.45324 | -82.12852 | 20359 ft | 306 kts | 189° |
| 2026-05-04 18:11 | 36.43181 | -82.12981 | 21328 ft | 311 kts | 186° |
| 2026-05-04 18:11 | 36.41000 | -82.12988 | 22235 ft | 316 kts | 185° |
| 2026-05-04 18:11 | 36.38788 | -82.13008 | 23187 ft | 319 kts | 186° |
| 2026-05-04 18:12 | 36.36550 | -82.13046 | 24012 ft | 324 kts | 186° |
| 2026-05-04 18:12 | 36.34284 | -82.13076 | 24736 ft | 328 kts | 186° |
| 2026-05-04 18:12 | 36.32015 | -82.13094 | 25446 ft | 332 kts | 186° |
| 2026-05-04 18:12 | 36.29685 | -82.13123 | 26108 ft | 337 kts | 187° |
| 2026-05-04 18:13 | 36.27331 | -82.13156 | 26816 ft | 341 kts | 187° |
| 2026-05-04 18:13 | 36.24933 | -82.13181 | 27501 ft | 346 kts | 187° |
| 2026-05-04 18:13 | 36.20059 | -82.13235 | 28813 ft | 354 kts | 188° |
| 2026-05-04 18:14 | 36.17585 | -82.13264 | 29467 ft | 358 kts | 188° |
| 2026-05-04 18:14 | 36.15076 | -82.13296 | 30105 ft | 362 kts | 188° |
| 2026-05-04 18:14 | 36.12542 | -82.13323 | 30636 ft | 366 kts | 188° |
| 2026-05-04 18:15 | 36.07279 | -82.13394 | 30960 ft | 396 kts | 188° |
| 2026-05-04 18:15 | 36.01522 | -82.13453 | 30964 ft | 430 kts | 187° |
| 2026-05-04 18:15 | 35.98478 | -82.13491 | 30965 ft | 446 kts | 187° |
| 2026-05-04 18:16 | 35.95355 | -82.13529 | 30966 ft | 460 kts | 187° |
| 2026-05-04 18:16 | 35.92110 | -82.13564 | 30963 ft | 472 kts | 187° |
| 2026-05-04 18:16 | 35.88843 | -82.13584 | 30960 ft | 456 kts | 187° |
| 2026-05-04 18:17 | 35.82387 | -82.13680 | 30967 ft | 473 kts | 187° |
| 2026-05-04 18:17 | 35.79141 | -82.13705 | 30949 ft | 461 kts | 187° |
| 2026-05-04 18:18 | 35.69389 | -82.13825 | 30961 ft | 472 kts | 187° |
| 2026-05-04 18:18 | 35.62847 | -82.13886 | 30963 ft | 468 kts | 187° |
| 2026-05-04 18:19 | 35.53091 | -82.14004 | 30969 ft | 467 kts | 187° |
| 2026-05-04 18:19 | 35.46577 | -82.14073 | 30963 ft | 468 kts | 187° |
| 2026-05-04 18:20 | 35.40103 | -82.14150 | 30966 ft | 468 kts | 187° |
| 2026-05-04 18:20 | 35.33600 | -82.14221 | 30958 ft | 467 kts | 187° |
| 2026-05-04 18:21 | 35.27101 | -82.14296 | 30958 ft | 466 kts | 187° |
| 2026-05-04 18:21 | 35.20941 | -82.14365 | 30953 ft | 466 kts | 187° |
| 2026-05-04 18:22 | 35.14432 | -82.14439 | 30965 ft | 468 kts | 186° |
| 2026-05-04 18:22 | 35.07952 | -82.14510 | 30971 ft | 467 kts | 186° |
| 2026-05-04 18:23 | 35.01449 | -82.14585 | 30978 ft | 466 kts | 186° |
| 2026-05-04 18:23 | 34.94979 | -82.14656 | 30983 ft | 464 kts | 186° |
| 2026-05-04 18:24 | 34.88512 | -82.14729 | 30983 ft | 465 kts | 186° |
| 2026-05-04 18:24 | 34.82013 | -82.14802 | 30983 ft | 467 kts | 186° |
| 2026-05-04 18:25 | 34.75549 | -82.14873 | 30984 ft | 466 kts | 186° |
| 2026-05-04 18:25 | 34.69088 | -82.14945 | 30980 ft | 463 kts | 186° |
| 2026-05-04 18:26 | 34.62637 | -82.15017 | 30980 ft | 463 kts | 186° |
| 2026-05-04 18:26 | 34.56167 | -82.15089 | 30980 ft | 465 kts | 186° |
| 2026-05-04 18:27 | 34.49676 | -82.15162 | 30979 ft | 466 kts | 186° |
| 2026-05-04 18:27 | 34.44289 | -82.15218 | 30980 ft | 465 kts | 186° |
| 2026-05-04 18:28 | 34.36730 | -82.15307 | 31000 ft | 464 kts | 186° |
| 2026-05-04 18:28 | 34.30315 | -82.15374 | 31002 ft | 464 kts | 186° |
| 2026-05-04 18:29 | 34.23846 | -82.15364 | 31000 ft | 467 kts | 182° |
| 2026-05-04 18:29 | 34.17341 | -82.14904 | 31002 ft | 468 kts | 183° |
| 2026-05-04 18:30 | 34.08675 | -82.14349 | 30994 ft | 469 kts | 182° |
| 2026-05-04 18:31 | 34.02153 | -82.13917 | 30995 ft | 469 kts | 183° |
| 2026-05-04 18:31 | 33.95631 | -82.13490 | 30989 ft | 468 kts | 183° |
| 2026-05-04 18:32 | 33.89144 | -82.13064 | 30982 ft | 466 kts | 183° |
| 2026-05-04 18:32 | 33.82715 | -82.12646 | 30989 ft | 466 kts | 183° |
| 2026-05-04 18:33 | 33.76254 | -82.12223 | 30989 ft | 468 kts | 183° |
| 2026-05-04 18:33 | 33.69734 | -82.11798 | 30993 ft | 469 kts | 183° |
| 2026-05-04 18:34 | 33.63391 | -82.11385 | 30995 ft | 467 kts | 183° |
| 2026-05-04 18:34 | 33.57355 | -82.10992 | 30999 ft | 465 kts | 183° |
| 2026-05-04 18:35 | 33.50887 | -82.10574 | 30999 ft | 466 kts | 183° |
| 2026-05-04 18:35 | 33.44440 | -82.10156 | 31001 ft | 467 kts | 183° |
| 2026-05-04 18:36 | 33.37935 | -82.09734 | 30999 ft | 467 kts | 183° |
| 2026-05-04 18:36 | 33.31455 | -82.09316 | 30990 ft | 466 kts | 183° |
| 2026-05-04 18:37 | 33.24990 | -82.08898 | 30987 ft | 464 kts | 183° |
| 2026-05-04 18:37 | 33.18523 | -82.08484 | 30988 ft | 465 kts | 183° |
| 2026-05-04 18:38 | 33.12044 | -82.08068 | 30982 ft | 466 kts | 183° |
| 2026-05-04 18:38 | 33.05556 | -82.07648 | 30979 ft | 467 kts | 183° |
| 2026-05-04 18:39 | 32.99093 | -82.07236 | 30986 ft | 468 kts | 183° |
| 2026-05-04 18:39 | 32.92609 | -82.06818 | 30985 ft | 465 kts | 183° |
| 2026-05-04 18:40 | 32.86152 | -82.06409 | 30985 ft | 464 kts | 184° |
| 2026-05-04 18:40 | 32.79690 | -82.05996 | 30984 ft | 467 kts | 184° |
| 2026-05-04 18:41 | 32.73189 | -82.05580 | 30988 ft | 467 kts | 184° |
| 2026-05-04 18:41 | 32.66708 | -82.05168 | 30989 ft | 466 kts | 184° |
| 2026-05-04 18:42 | 32.60248 | -82.04757 | 30999 ft | 465 kts | 184° |
| 2026-05-04 18:42 | 32.53897 | -82.04354 | 31003 ft | 464 kts | 184° |
| 2026-05-04 18:43 | 32.47436 | -82.03946 | 31011 ft | 465 kts | 184° |
| 2026-05-04 18:43 | 32.41015 | -82.03684 | 31006 ft | 465 kts | 185° |
| 2026-05-04 18:44 | 32.34542 | -82.03441 | 31006 ft | 466 kts | 185° |
| 2026-05-04 18:44 | 32.28055 | -82.03224 | 31000 ft | 466 kts | 185° |
| 2026-05-04 18:45 | 32.21568 | -82.02995 | 30999 ft | 465 kts | 185° |
| 2026-05-04 18:45 | 32.15101 | -82.02774 | 31000 ft | 464 kts | 185° |
| 2026-05-04 18:46 | 32.08638 | -82.02549 | 31002 ft | 464 kts | 185° |
| 2026-05-04 18:46 | 32.02201 | -82.02328 | 30998 ft | 463 kts | 185° |
| 2026-05-04 18:47 | 31.95739 | -82.02107 | 31001 ft | 465 kts | 185° |
| 2026-05-04 18:47 | 31.89290 | -82.01884 | 31000 ft | 467 kts | 185° |
| 2026-05-04 18:48 | 31.82771 | -82.00979 | 30998 ft | 476 kts | 177° |
| 2026-05-04 18:48 | 31.76255 | -81.99669 | 31014 ft | 475 kts | 178° |
| 2026-05-04 18:49 | 31.69751 | -81.98326 | 31019 ft | 475 kts | 177° |
| 2026-05-04 18:49 | 31.66478 | -81.97659 | 30856 ft | 477 kts | 178° |
| 2026-05-04 18:49 | 31.63216 | -81.96999 | 30692 ft | 474 kts | 178° |
| 2026-05-04 18:49 | 31.59978 | -81.96337 | 30512 ft | 471 kts | 177° |
| 2026-05-04 18:50 | 31.56756 | -81.95677 | 30350 ft | 469 kts | 177° |
| 2026-05-04 18:50 | 31.53542 | -81.95025 | 30175 ft | 467 kts | 177° |
| 2026-05-04 18:50 | 31.50357 | -81.94379 | 30039 ft | 464 kts | 177° |
| 2026-05-04 18:51 | 31.43969 | -81.93083 | 30032 ft | 468 kts | 177° |
| 2026-05-04 18:51 | 31.37527 | -81.91772 | 30019 ft | 469 kts | 178° |
| 2026-05-04 18:52 | 31.31107 | -81.90471 | 30012 ft | 467 kts | 178° |
| 2026-05-04 18:52 | 31.24712 | -81.89179 | 30011 ft | 467 kts | 178° |
| 2026-05-04 18:53 | 31.18282 | -81.87880 | 30007 ft | 469 kts | 178° |
| 2026-05-04 18:53 | 31.11875 | -81.86586 | 30008 ft | 471 kts | 178° |
| 2026-05-04 18:54 | 31.05423 | -81.85285 | 30009 ft | 470 kts | 178° |
| 2026-05-04 18:54 | 30.98981 | -81.83989 | 30011 ft | 468 kts | 178° |
| 2026-05-04 18:55 | 30.92543 | -81.82696 | 30011 ft | 470 kts | 178° |
| 2026-05-04 18:55 | 30.89324 | -81.82050 | 30011 ft | 471 kts | 178° |
| 2026-05-04 18:56 | 30.85981 | -81.81379 | 30013 ft | 471 kts | 178° |
| 2026-05-04 18:56 | 30.79573 | -81.80095 | 30015 ft | 473 kts | 178° |
| 2026-05-04 18:57 | 30.73121 | -81.78802 | 30015 ft | 472 kts | 178° |
| 2026-05-04 18:57 | 30.66649 | -81.77510 | 30023 ft | 471 kts | 178° |
| 2026-05-04 18:58 | 30.60188 | -81.76438 | 30020 ft | 463 kts | 184° |
| 2026-05-04 18:58 | 30.53776 | -81.75844 | 30018 ft | 467 kts | 182° |
| 2026-05-04 18:59 | 30.47289 | -81.75225 | 30022 ft | 468 kts | 184° |
| 2026-05-04 18:59 | 30.40811 | -81.74622 | 30020 ft | 466 kts | 183° |
| 2026-05-04 19:00 | 30.34340 | -81.74011 | 30031 ft | 465 kts | 183° |
| 2026-05-04 19:00 | 30.27896 | -81.73411 | 30031 ft | 464 kts | 183° |
| 2026-05-04 19:01 | 30.21456 | -81.72807 | 30008 ft | 465 kts | 183° |
| 2026-05-04 19:01 | 30.14998 | -81.72204 | 30007 ft | 466 kts | 183° |
| 2026-05-04 19:02 | 30.08565 | -81.71604 | 30009 ft | 466 kts | 183° |
| 2026-05-04 19:02 | 30.02098 | -81.71001 | 29999 ft | 466 kts | 183° |
| 2026-05-04 19:03 | 29.95656 | -81.70399 | 30009 ft | 463 kts | 183° |
| 2026-05-04 19:03 | 29.89237 | -81.69807 | 30013 ft | 462 kts | 183° |
| 2026-05-04 19:04 | 29.82803 | -81.69206 | 30008 ft | 464 kts | 183° |
| 2026-05-04 19:04 | 29.76360 | -81.68612 | 30001 ft | 464 kts | 183° |
| 2026-05-04 19:05 | 29.69929 | -81.67703 | 30000 ft | 472 kts | 174° |
| 2026-05-04 19:05 | 29.63669 | -81.65120 | 29999 ft | 481 kts | 165° |
| 2026-05-04 19:06 | 29.57471 | -81.62204 | 29999 ft | 482 kts | 165° |
| 2026-05-04 19:06 | 29.51251 | -81.59243 | 29999 ft | 484 kts | 165° |
| 2026-05-04 19:07 | 29.45011 | -81.56299 | 30004 ft | 484 kts | 165° |
| 2026-05-04 19:07 | 29.38832 | -81.53375 | 30006 ft | 482 kts | 165° |
| 2026-05-04 19:08 | 29.32632 | -81.50453 | 30003 ft | 481 kts | 165° |
| 2026-05-04 19:08 | 29.26420 | -81.47529 | 30004 ft | 483 kts | 165° |
| 2026-05-04 19:09 | 29.20174 | -81.44588 | 29999 ft | 486 kts | 165° |
| 2026-05-04 19:09 | 29.13926 | -81.41651 | 29999 ft | 484 kts | 165° |
| 2026-05-04 19:10 | 29.07722 | -81.38741 | 29997 ft | 482 kts | 165° |
| 2026-05-04 19:10 | 29.01533 | -81.35842 | 30000 ft | 483 kts | 165° |
| 2026-05-04 19:11 | 28.95320 | -81.32933 | 29998 ft | 485 kts | 165° |
| 2026-05-04 19:11 | 28.89320 | -81.30130 | 29995 ft | 486 kts | 165° |
| 2026-05-04 19:12 | 28.79839 | -81.25704 | 29992 ft | 484 kts | 166° |
| 2026-05-04 19:13 | 28.74621 | -81.23273 | 29987 ft | 483 kts | 166° |
| 2026-05-04 19:13 | 28.68399 | -81.20378 | 29990 ft | 484 kts | 165° |
| 2026-05-04 19:14 | 28.62161 | -81.17478 | 29990 ft | 485 kts | 165° |
| 2026-05-04 19:14 | 28.55947 | -81.14592 | 29988 ft | 483 kts | 165° |
| 2026-05-04 19:15 | 28.49740 | -81.11715 | 29980 ft | 481 kts | 165° |
| 2026-05-04 19:15 | 28.43546 | -81.08848 | 29980 ft | 481 kts | 165° |
| 2026-05-04 19:16 | 28.37373 | -81.05853 | 29978 ft | 488 kts | 159° |
| 2026-05-04 19:16 | 28.32072 | -81.01701 | 29988 ft | 499 kts | 148° |
| 2026-05-04 19:17 | 28.26640 | -80.96959 | 29989 ft | 500 kts | 149° |
| 2026-05-04 19:17 | 28.21132 | -80.92128 | 29979 ft | 501 kts | 148° |
| 2026-05-04 19:18 | 28.15627 | -80.87322 | 29977 ft | 497 kts | 148° |
| 2026-05-04 19:18 | 28.10142 | -80.82536 | 29974 ft | 498 kts | 148° |
| 2026-05-04 19:19 | 28.04636 | -80.77736 | 29972 ft | 500 kts | 148° |
| 2026-05-04 19:19 | 27.99136 | -80.72950 | 29975 ft | 502 kts | 148° |
| 2026-05-04 19:20 | 27.93600 | -80.68137 | 29972 ft | 501 kts | 149° |
| 2026-05-04 19:20 | 27.88080 | -80.63346 | 29969 ft | 500 kts | 149° |
| 2026-05-04 19:21 | 27.82554 | -80.58556 | 29970 ft | 500 kts | 149° |